sensor_id;sensor_type;location;lat;lon;timestamp;P1;durP1;ratioP1;P2;durP2;ratioP2
66437;SDS011;54537;47.972;11.662;2023-04-15T00:01:43;6.85;;;2.67;;
66437;SDS011;54537;47.972;11.662;2023-04-15T00:04:10;4.35;;;2.30;;
66437;SDS011;54537;47.972;11.662;2023-04-15T00:06:37;5.45;;;2.60;;
66437;SDS011;54537;47.972;11.662;2023-04-15T00:09:03;6.70;;;2.20;;
66437;SDS011;54537;47.972;11.662;2023-04-15T00:11:30;5.13;;;2.28;;
66437;SDS011;54537;47.972;11.662;2023-04-15T00:13:57;7.65;;;2.83;;
66437;SDS011;54537;47.972;11.662;2023-04-15T00:16:24;6.32;;;2.33;;
66437;SDS011;54537;47.972;11.662;2023-04-15T00:18:50;6.55;;;2.55;;
66437;SDS011;54537;47.972;11.662;2023-04-15T00:21:18;6.90;;;2.22;;
66437;SDS011;54537;47.972;11.662;2023-04-15T00:23:45;6.13;;;2.38;;
66437;SDS011;54537;47.972;11.662;2023-04-15T00:26:16;11.98;;;2.40;;
66437;SDS011;54537;47.972;11.662;2023-04-15T00:28:43;6.68;;;2.53;;
66437;SDS011;54537;47.972;11.662;2023-04-15T00:31:09;8.68;;;2.88;;
66437;SDS011;54537;47.972;11.662;2023-04-15T00:33:39;5.50;;;2.58;;
66437;SDS011;54537;47.972;11.662;2023-04-15T00:36:06;7.68;;;2.85;;
66437;SDS011;54537;47.972;11.662;2023-04-15T00:38:35;9.88;;;3.25;;
66437;SDS011;54537;47.972;11.662;2023-04-15T00:41:03;5.70;;;2.45;;
66437;SDS011;54537;47.972;11.662;2023-04-15T00:43:30;4.50;;;2.40;;
66437;SDS011;54537;47.972;11.662;2023-04-15T00:45:57;8.30;;;3.10;;
66437;SDS011;54537;47.972;11.662;2023-04-15T00:48:24;6.82;;;2.78;;
66437;SDS011;54537;47.972;11.662;2023-04-15T00:50:51;11.05;;;2.80;;
66437;SDS011;54537;47.972;11.662;2023-04-15T00:53:18;7.18;;;2.70;;
66437;SDS011;54537;47.972;11.662;2023-04-15T00:55:46;7.75;;;3.00;;
66437;SDS011;54537;47.972;11.662;2023-04-15T00:58:12;7.35;;;2.60;;
66437;SDS011;54537;47.972;11.662;2023-04-15T01:00:39;7.57;;;2.38;;
66437;SDS011;54537;47.972;11.662;2023-04-15T01:03:06;8.43;;;2.50;;
66437;SDS011;54537;47.972;11.662;2023-04-15T01:05:32;8.15;;;2.70;;
66437;SDS011;54537;47.972;11.662;2023-04-15T01:07:59;7.32;;;2.72;;
66437;SDS011;54537;47.972;11.662;2023-04-15T01:10:25;7.75;;;2.70;;
66437;SDS011;54537;47.972;11.662;2023-04-15T01:12:53;5.65;;;2.47;;
66437;SDS011;54537;47.972;11.662;2023-04-15T01:15:20;6.90;;;2.50;;
66437;SDS011;54537;47.972;11.662;2023-04-15T01:17:47;6.03;;;2.58;;
66437;SDS011;54537;47.972;11.662;2023-04-15T01:20:14;8.18;;;2.50;;
66437;SDS011;54537;47.972;11.662;2023-04-15T01:22:41;10.43;;;2.55;;
66437;SDS011;54537;47.972;11.662;2023-04-15T01:25:08;8.15;;;2.88;;
66437;SDS011;54537;47.972;11.662;2023-04-15T01:27:38;8.60;;;2.80;;
66437;SDS011;54537;47.972;11.662;2023-04-15T01:30:05;9.05;;;3.22;;
66437;SDS011;54537;47.972;11.662;2023-04-15T01:32:32;8.38;;;3.20;;
66437;SDS011;54537;47.972;11.662;2023-04-15T01:34:59;29.05;;;8.88;;
66437;SDS011;54537;47.972;11.662;2023-04-15T01:37:25;6.85;;;2.50;;
66437;SDS011;54537;47.972;11.662;2023-04-15T01:39:52;4.90;;;2.58;;
66437;SDS011;54537;47.972;11.662;2023-04-15T01:42:19;11.15;;;3.10;;
66437;SDS011;54537;47.972;11.662;2023-04-15T01:44:47;12.05;;;2.90;;
66437;SDS011;54537;47.972;11.662;2023-04-15T01:47:14;7.70;;;2.60;;
66437;SDS011;54537;47.972;11.662;2023-04-15T01:49:40;5.78;;;2.42;;
66437;SDS011;54537;47.972;11.662;2023-04-15T01:52:07;6.65;;;2.65;;
66437;SDS011;54537;47.972;11.662;2023-04-15T01:54:33;7.03;;;2.80;;
66437;SDS011;54537;47.972;11.662;2023-04-15T01:57:00;7.82;;;3.03;;
66437;SDS011;54537;47.972;11.662;2023-04-15T01:59:27;4.55;;;2.97;;
66437;SDS011;54537;47.972;11.662;2023-04-15T02:01:56;7.93;;;2.55;;
66437;SDS011;54537;47.972;11.662;2023-04-15T02:04:23;6.82;;;2.58;;
66437;SDS011;54537;47.972;11.662;2023-04-15T02:06:49;14.15;;;2.80;;
66437;SDS011;54537;47.972;11.662;2023-04-15T02:09:16;6.88;;;2.42;;
66437;SDS011;54537;47.972;11.662;2023-04-15T02:11:42;6.22;;;2.58;;
66437;SDS011;54537;47.972;11.662;2023-04-15T02:14:09;6.47;;;2.90;;
66437;SDS011;54537;47.972;11.662;2023-04-15T02:16:35;5.18;;;1.85;;
66437;SDS011;54537;47.972;11.662;2023-04-15T02:19:03;7.28;;;2.40;;
66437;SDS011;54537;47.972;11.662;2023-04-15T02:21:30;5.20;;;2.33;;
66437;SDS011;54537;47.972;11.662;2023-04-15T02:23:56;10.02;;;2.90;;
66437;SDS011;54537;47.972;11.662;2023-04-15T02:26:23;7.57;;;2.42;;
66437;SDS011;54537;47.972;11.662;2023-04-15T02:28:50;7.72;;;2.40;;
66437;SDS011;54537;47.972;11.662;2023-04-15T02:31:16;6.53;;;2.50;;
66437;SDS011;54537;47.972;11.662;2023-04-15T02:33:43;5.47;;;2.13;;
66437;SDS011;54537;47.972;11.662;2023-04-15T02:36:11;9.63;;;2.50;;
66437;SDS011;54537;47.972;11.662;2023-04-15T02:38:37;8.00;;;3.00;;
66437;SDS011;54537;47.972;11.662;2023-04-15T02:41:06;6.63;;;2.42;;
66437;SDS011;54537;47.972;11.662;2023-04-15T02:43:32;5.68;;;2.60;;
66437;SDS011;54537;47.972;11.662;2023-04-15T02:45:59;5.22;;;2.30;;
66437;SDS011;54537;47.972;11.662;2023-04-15T02:48:25;5.68;;;2.63;;
66437;SDS011;54537;47.972;11.662;2023-04-15T02:50:52;5.80;;;2.63;;
66437;SDS011;54537;47.972;11.662;2023-04-15T02:53:20;4.05;;;2.08;;
66437;SDS011;54537;47.972;11.662;2023-04-15T02:55:46;4.22;;;2.10;;
66437;SDS011;54537;47.972;11.662;2023-04-15T02:58:13;6.00;;;2.55;;
66437;SDS011;54537;47.972;11.662;2023-04-15T03:00:39;4.30;;;2.10;;
66437;SDS011;54537;47.972;11.662;2023-04-15T03:03:06;3.75;;;2.20;;
66437;SDS011;54537;47.972;11.662;2023-04-15T03:05:33;6.45;;;2.33;;
66437;SDS011;54537;47.972;11.662;2023-04-15T03:07:59;5.80;;;2.10;;
66437;SDS011;54537;47.972;11.662;2023-04-15T03:10:28;5.85;;;2.28;;
66437;SDS011;54537;47.972;11.662;2023-04-15T03:12:54;6.13;;;2.33;;
66437;SDS011;54537;47.972;11.662;2023-04-15T03:15:21;5.18;;;2.33;;
66437;SDS011;54537;47.972;11.662;2023-04-15T03:17:48;5.50;;;2.08;;
66437;SDS011;54537;47.972;11.662;2023-04-15T03:20:14;7.30;;;2.08;;
66437;SDS011;54537;47.972;11.662;2023-04-15T03:22:41;4.85;;;2.40;;
66437;SDS011;54537;47.972;11.662;2023-04-15T03:25:07;7.63;;;2.10;;
66437;SDS011;54537;47.972;11.662;2023-04-15T03:27:36;6.50;;;2.22;;
66437;SDS011;54537;47.972;11.662;2023-04-15T03:30:03;6.20;;;1.90;;
66437;SDS011;54537;47.972;11.662;2023-04-15T03:32:30;4.65;;;2.03;;
66437;SDS011;54537;47.972;11.662;2023-04-15T03:34:57;5.15;;;2.15;;
66437;SDS011;54537;47.972;11.662;2023-04-15T03:37:23;5.22;;;2.38;;
66437;SDS011;54537;47.972;11.662;2023-04-15T03:39:50;7.18;;;2.22;;
66437;SDS011;54537;47.972;11.662;2023-04-15T03:42:16;5.40;;;2.10;;
66437;SDS011;54537;47.972;11.662;2023-04-15T03:44:44;4.60;;;2.47;;
66437;SDS011;54537;47.972;11.662;2023-04-15T03:47:11;6.68;;;2.20;;
66437;SDS011;54537;47.972;11.662;2023-04-15T03:49:37;5.20;;;2.30;;
66437;SDS011;54537;47.972;11.662;2023-04-15T03:52:04;4.35;;;2.30;;
66437;SDS011;54537;47.972;11.662;2023-04-15T03:54:30;5.57;;;2.13;;
66437;SDS011;54537;47.972;11.662;2023-04-15T03:56:57;7.10;;;2.10;;
66437;SDS011;54537;47.972;11.662;2023-04-15T03:59:23;6.70;;;2.45;;
66437;SDS011;54537;47.972;11.662;2023-04-15T04:01:51;5.22;;;2.28;;
66437;SDS011;54537;47.972;11.662;2023-04-15T04:04:18;5.85;;;1.98;;
66437;SDS011;54537;47.972;11.662;2023-04-15T04:06:45;6.60;;;2.03;;
66437;SDS011;54537;47.972;11.662;2023-04-15T04:09:11;6.15;;;2.15;;
66437;SDS011;54537;47.972;11.662;2023-04-15T04:11:38;4.88;;;1.77;;
66437;SDS011;54537;47.972;11.662;2023-04-15T04:14:04;3.75;;;1.70;;
66437;SDS011;54537;47.972;11.662;2023-04-15T04:16:31;8.02;;;1.90;;
66437;SDS011;54537;47.972;11.662;2023-04-15T04:18:58;4.03;;;2.10;;
66437;SDS011;54537;47.972;11.662;2023-04-15T04:21:25;12.43;;;4.55;;
66437;SDS011;54537;47.972;11.662;2023-04-15T04:23:52;9.20;;;3.53;;
66437;SDS011;54537;47.972;11.662;2023-04-15T04:26:18;7.15;;;2.78;;
66437;SDS011;54537;47.972;11.662;2023-04-15T04:28:45;5.25;;;2.50;;
66437;SDS011;54537;47.972;11.662;2023-04-15T04:31:11;7.00;;;2.45;;
66437;SDS011;54537;47.972;11.662;2023-04-15T04:33:38;7.28;;;2.78;;
66437;SDS011;54537;47.972;11.662;2023-04-15T04:36:06;4.43;;;2.00;;
66437;SDS011;54537;47.972;11.662;2023-04-15T04:38:33;5.55;;;2.08;;
66437;SDS011;54537;47.972;11.662;2023-04-15T04:40:59;4.85;;;2.40;;
66437;SDS011;54537;47.972;11.662;2023-04-15T04:43:26;2.97;;;1.70;;
66437;SDS011;54537;47.972;11.662;2023-04-15T04:45:52;7.00;;;2.20;;
66437;SDS011;54537;47.972;11.662;2023-04-15T04:48:19;5.13;;;2.53;;
66437;SDS011;54537;47.972;11.662;2023-04-15T04:50:46;5.13;;;2.25;;
66437;SDS011;54537;47.972;11.662;2023-04-15T04:53:14;5.65;;;2.67;;
66437;SDS011;54537;47.972;11.662;2023-04-15T04:55:42;6.30;;;2.40;;
66437;SDS011;54537;47.972;11.662;2023-04-15T04:58:08;9.60;;;2.88;;
66437;SDS011;54537;47.972;11.662;2023-04-15T05:00:35;4.85;;;2.05;;
66437;SDS011;54537;47.972;11.662;2023-04-15T05:03:02;8.45;;;2.70;;
66437;SDS011;54537;47.972;11.662;2023-04-15T05:05:29;5.57;;;2.55;;
66437;SDS011;54537;47.972;11.662;2023-04-15T05:07:55;8.27;;;2.55;;
66437;SDS011;54537;47.972;11.662;2023-04-15T05:10:23;10.32;;;2.60;;
66437;SDS011;54537;47.972;11.662;2023-04-15T05:12:49;6.70;;;2.67;;
66437;SDS011;54537;47.972;11.662;2023-04-15T05:15:16;6.43;;;2.13;;
66437;SDS011;54537;47.972;11.662;2023-04-15T05:17:43;6.00;;;2.42;;
66437;SDS011;54537;47.972;11.662;2023-04-15T05:20:10;4.45;;;2.05;;
66437;SDS011;54537;47.972;11.662;2023-04-15T05:22:37;7.80;;;2.20;;
66437;SDS011;54537;47.972;11.662;2023-04-15T05:25:04;5.45;;;2.15;;
66437;SDS011;54537;47.972;11.662;2023-04-15T05:27:32;4.55;;;2.05;;
66437;SDS011;54537;47.972;11.662;2023-04-15T05:29:59;9.07;;;2.03;;
66437;SDS011;54537;47.972;11.662;2023-04-15T05:32:25;5.60;;;1.90;;
66437;SDS011;54537;47.972;11.662;2023-04-15T05:34:52;7.10;;;2.08;;
66437;SDS011;54537;47.972;11.662;2023-04-15T05:37:18;4.07;;;1.90;;
66437;SDS011;54537;47.972;11.662;2023-04-15T05:39:46;4.20;;;2.10;;
66437;SDS011;54537;47.972;11.662;2023-04-15T05:42:13;6.90;;;2.00;;
66437;SDS011;54537;47.972;11.662;2023-04-15T05:44:41;6.35;;;1.55;;
66437;SDS011;54537;47.972;11.662;2023-04-15T05:47:07;9.60;;;2.00;;
66437;SDS011;54537;47.972;11.662;2023-04-15T05:49:34;2.95;;;1.63;;
66437;SDS011;54537;47.972;11.662;2023-04-15T05:52:01;4.40;;;2.10;;
66437;SDS011;54537;47.972;11.662;2023-04-15T05:54:28;5.07;;;1.73;;
66437;SDS011;54537;47.972;11.662;2023-04-15T05:56:54;5.07;;;1.83;;
66437;SDS011;54537;47.972;11.662;2023-04-15T05:59:21;5.38;;;1.88;;
66437;SDS011;54537;47.972;11.662;2023-04-15T06:01:49;4.63;;;1.63;;
66437;SDS011;54537;47.972;11.662;2023-04-15T06:04:17;4.00;;;1.92;;
66437;SDS011;54537;47.972;11.662;2023-04-15T06:06:43;4.05;;;1.88;;
66437;SDS011;54537;47.972;11.662;2023-04-15T06:09:10;4.53;;;1.75;;
66437;SDS011;54537;47.972;11.662;2023-04-15T06:11:36;5.20;;;2.38;;
66437;SDS011;54537;47.972;11.662;2023-04-15T06:14:03;6.50;;;1.90;;
66437;SDS011;54537;47.972;11.662;2023-04-15T06:16:29;4.35;;;1.60;;
66437;SDS011;54537;47.972;11.662;2023-04-15T06:18:57;3.05;;;1.40;;
66437;SDS011;54537;47.972;11.662;2023-04-15T06:21:24;5.57;;;1.48;;
66437;SDS011;54537;47.972;11.662;2023-04-15T06:23:51;3.15;;;1.50;;
66437;SDS011;54537;47.972;11.662;2023-04-15T06:26:18;3.45;;;1.45;;
66437;SDS011;54537;47.972;11.662;2023-04-15T06:28:44;5.68;;;1.50;;
66437;SDS011;54537;47.972;11.662;2023-04-15T06:31:11;3.47;;;1.88;;
66437;SDS011;54537;47.972;11.662;2023-04-15T06:33:38;2.83;;;1.30;;
66437;SDS011;54537;47.972;11.662;2023-04-15T06:36:06;3.30;;;2.00;;
66437;SDS011;54537;47.972;11.662;2023-04-15T06:38:33;3.72;;;1.40;;
66437;SDS011;54537;47.972;11.662;2023-04-15T06:40:59;5.18;;;1.50;;
66437;SDS011;54537;47.972;11.662;2023-04-15T06:43:26;4.72;;;1.83;;
66437;SDS011;54537;47.972;11.662;2023-04-15T06:45:52;4.10;;;1.48;;
66437;SDS011;54537;47.972;11.662;2023-04-15T06:48:19;6.43;;;1.60;;
66437;SDS011;54537;47.972;11.662;2023-04-15T06:50:46;3.70;;;1.77;;
66437;SDS011;54537;47.972;11.662;2023-04-15T06:53:13;4.03;;;1.33;;
66437;SDS011;54537;47.972;11.662;2023-04-15T06:55:40;6.35;;;1.60;;
66437;SDS011;54537;47.972;11.662;2023-04-15T06:58:07;5.95;;;2.22;;
66437;SDS011;54537;47.972;11.662;2023-04-15T07:00:33;4.63;;;1.83;;
66437;SDS011;54537;47.972;11.662;2023-04-15T07:03:03;3.35;;;1.77;;
66437;SDS011;54537;47.972;11.662;2023-04-15T07:05:29;3.85;;;1.60;;
66437;SDS011;54537;47.972;11.662;2023-04-15T07:07:56;3.58;;;1.55;;
66437;SDS011;54537;47.972;11.662;2023-04-15T07:10:24;5.43;;;1.98;;
66437;SDS011;54537;47.972;11.662;2023-04-15T07:12:50;4.07;;;1.88;;
66437;SDS011;54537;47.972;11.662;2023-04-15T07:15:17;3.63;;;1.60;;
66437;SDS011;54537;47.972;11.662;2023-04-15T07:17:44;4.72;;;1.75;;
66437;SDS011;54537;47.972;11.662;2023-04-15T07:20:11;4.40;;;1.38;;
66437;SDS011;54537;47.972;11.662;2023-04-15T07:22:38;5.05;;;1.35;;
66437;SDS011;54537;47.972;11.662;2023-04-15T07:25:05;4.53;;;1.40;;
66437;SDS011;54537;47.972;11.662;2023-04-15T07:27:34;6.10;;;2.13;;
66437;SDS011;54537;47.972;11.662;2023-04-15T07:30:00;3.75;;;1.50;;
66437;SDS011;54537;47.972;11.662;2023-04-15T07:32:27;5.97;;;2.00;;
66437;SDS011;54537;47.972;11.662;2023-04-15T07:34:53;2.90;;;1.33;;
66437;SDS011;54537;47.972;11.662;2023-04-15T07:37:20;3.88;;;1.35;;
66437;SDS011;54537;47.972;11.662;2023-04-15T07:39:47;5.45;;;1.35;;
66437;SDS011;54537;47.972;11.662;2023-04-15T07:42:14;2.97;;;1.60;;
66437;SDS011;54537;47.972;11.662;2023-04-15T07:44:41;5.47;;;1.60;;
66437;SDS011;54537;47.972;11.662;2023-04-15T07:47:08;4.88;;;1.40;;
66437;SDS011;54537;47.972;11.662;2023-04-15T07:49:35;3.88;;;1.50;;
66437;SDS011;54537;47.972;11.662;2023-04-15T07:52:01;4.07;;;1.60;;
66437;SDS011;54537;47.972;11.662;2023-04-15T07:54:28;5.93;;;2.22;;
66437;SDS011;54537;47.972;11.662;2023-04-15T07:56:54;4.60;;;1.52;;
66437;SDS011;54537;47.972;11.662;2023-04-15T07:59:21;2.50;;;1.30;;
66437;SDS011;54537;47.972;11.662;2023-04-15T08:01:49;4.30;;;1.52;;
66437;SDS011;54537;47.972;11.662;2023-04-15T08:04:15;4.97;;;1.30;;
66437;SDS011;54537;47.972;11.662;2023-04-15T08:06:42;4.40;;;1.58;;
66437;SDS011;54537;47.972;11.662;2023-04-15T08:09:08;5.05;;;1.50;;
66437;SDS011;54537;47.972;11.662;2023-04-15T08:11:35;3.42;;;1.58;;
66437;SDS011;54537;47.972;11.662;2023-04-15T08:14:02;5.32;;;1.50;;
66437;SDS011;54537;47.972;11.662;2023-04-15T08:16:28;3.28;;;1.40;;
66437;SDS011;54537;47.972;11.662;2023-04-15T08:18:56;2.50;;;1.40;;
66437;SDS011;54537;47.972;11.662;2023-04-15T08:21:23;3.50;;;1.45;;
66437;SDS011;54537;47.972;11.662;2023-04-15T08:23:50;5.63;;;1.50;;
66437;SDS011;54537;47.972;11.662;2023-04-15T08:26:17;2.50;;;1.25;;
66437;SDS011;54537;47.972;11.662;2023-04-15T08:28:45;3.67;;;1.50;;
66437;SDS011;54537;47.972;11.662;2023-04-15T08:31:11;5.72;;;1.60;;
66437;SDS011;54537;47.972;11.662;2023-04-15T08:33:39;4.00;;;1.50;;
66437;SDS011;54537;47.972;11.662;2023-04-15T08:36:07;2.33;;;1.20;;
66437;SDS011;54537;47.972;11.662;2023-04-15T08:38:33;2.78;;;1.33;;
66437;SDS011;54537;47.972;11.662;2023-04-15T08:41:02;4.90;;;1.67;;
66437;SDS011;54537;47.972;11.662;2023-04-15T08:43:32;6.07;;;1.63;;
66437;SDS011;54537;47.972;11.662;2023-04-15T08:46:00;4.45;;;1.90;;
66437;SDS011;54537;47.972;11.662;2023-04-15T08:48:27;4.55;;;1.60;;
66437;SDS011;54537;47.972;11.662;2023-04-15T08:50:55;4.22;;;1.63;;
66437;SDS011;54537;47.972;11.662;2023-04-15T08:53:23;7.13;;;1.92;;
66437;SDS011;54537;47.972;11.662;2023-04-15T08:55:50;5.85;;;1.73;;
66437;SDS011;54537;47.972;11.662;2023-04-15T08:58:18;6.07;;;1.60;;
66437;SDS011;54537;47.972;11.662;2023-04-15T09:00:44;5.93;;;1.55;;
66437;SDS011;54537;47.972;11.662;2023-04-15T09:03:12;4.88;;;1.83;;
66437;SDS011;54537;47.972;11.662;2023-04-15T09:05:39;6.45;;;1.95;;
66437;SDS011;54537;47.972;11.662;2023-04-15T09:08:06;6.68;;;2.28;;
66437;SDS011;54537;47.972;11.662;2023-04-15T09:10:34;7.57;;;2.45;;
66437;SDS011;54537;47.972;11.662;2023-04-15T09:13:00;6.03;;;2.47;;
66437;SDS011;54537;47.972;11.662;2023-04-15T09:15:28;8.90;;;2.58;;
66437;SDS011;54537;47.972;11.662;2023-04-15T09:17:55;6.97;;;2.53;;
66437;SDS011;54537;47.972;11.662;2023-04-15T09:20:21;5.70;;;2.33;;
66437;SDS011;54537;47.972;11.662;2023-04-15T09:22:48;7.25;;;2.40;;
66437;SDS011;54537;47.972;11.662;2023-04-15T09:25:25;7.78;;;2.70;;
66437;SDS011;54537;47.972;11.662;2023-04-15T09:27:55;7.03;;;2.33;;
66437;SDS011;54537;47.972;11.662;2023-04-15T09:30:23;9.43;;;2.17;;
66437;SDS011;54537;47.972;11.662;2023-04-15T09:32:49;5.55;;;2.40;;
66437;SDS011;54537;47.972;11.662;2023-04-15T09:35:16;5.72;;;2.10;;
66437;SDS011;54537;47.972;11.662;2023-04-15T09:37:43;5.13;;;2.53;;
66437;SDS011;54537;47.972;11.662;2023-04-15T09:40:10;5.53;;;2.42;;
66437;SDS011;54537;47.972;11.662;2023-04-15T09:42:42;4.63;;;2.38;;
66437;SDS011;54537;47.972;11.662;2023-04-15T09:45:21;5.15;;;2.00;;
66437;SDS011;54537;47.972;11.662;2023-04-15T09:47:48;4.15;;;2.10;;
66437;SDS011;54537;47.972;11.662;2023-04-15T09:50:17;6.93;;;2.60;;
66437;SDS011;54537;47.972;11.662;2023-04-15T09:52:44;4.38;;;1.98;;
66437;SDS011;54537;47.972;11.662;2023-04-15T09:55:11;8.82;;;2.33;;
66437;SDS011;54537;47.972;11.662;2023-04-15T09:57:38;7.10;;;2.22;;
66437;SDS011;54537;47.972;11.662;2023-04-15T10:00:07;5.32;;;2.25;;
66437;SDS011;54537;47.972;11.662;2023-04-15T10:02:35;5.40;;;2.33;;
66437;SDS011;54537;47.972;11.662;2023-04-15T10:05:02;5.43;;;2.20;;
66437;SDS011;54537;47.972;11.662;2023-04-15T10:07:30;5.95;;;2.25;;
66437;SDS011;54537;47.972;11.662;2023-04-15T10:09:56;6.05;;;2.33;;
66437;SDS011;54537;47.972;11.662;2023-04-15T10:12:26;4.95;;;2.30;;
66437;SDS011;54537;47.972;11.662;2023-04-15T10:14:55;5.03;;;2.38;;
66437;SDS011;54537;47.972;11.662;2023-04-15T10:17:25;5.93;;;2.60;;
66437;SDS011;54537;47.972;11.662;2023-04-15T10:19:53;6.55;;;2.58;;
66437;SDS011;54537;47.972;11.662;2023-04-15T10:22:20;6.40;;;2.53;;
66437;SDS011;54537;47.972;11.662;2023-04-15T10:24:47;4.53;;;1.98;;
66437;SDS011;54537;47.972;11.662;2023-04-15T10:27:15;5.28;;;2.28;;
66437;SDS011;54537;47.972;11.662;2023-04-15T10:29:42;4.80;;;2.30;;
66437;SDS011;54537;47.972;11.662;2023-04-15T10:32:09;5.82;;;1.90;;
66437;SDS011;54537;47.972;11.662;2023-04-15T10:34:37;5.47;;;2.40;;
66437;SDS011;54537;47.972;11.662;2023-04-15T10:37:04;6.78;;;2.60;;
66437;SDS011;54537;47.972;11.662;2023-04-15T10:39:43;6.63;;;2.75;;
66437;SDS011;54537;47.972;11.662;2023-04-15T10:42:10;7.65;;;2.17;;
66437;SDS011;54537;47.972;11.662;2023-04-15T10:44:37;6.43;;;2.42;;
66437;SDS011;54537;47.972;11.662;2023-04-15T10:47:05;6.55;;;2.20;;
66437;SDS011;54537;47.972;11.662;2023-04-15T10:52:29;6.47;;;2.45;;
66437;SDS011;54537;47.972;11.662;2023-04-15T10:55:11;7.15;;;2.38;;
66437;SDS011;54537;47.972;11.662;2023-04-15T10:57:39;5.97;;;2.47;;
66437;SDS011;54537;47.972;11.662;2023-04-15T11:00:09;4.22;;;1.75;;
66437;SDS011;54537;47.972;11.662;2023-04-15T11:02:38;5.13;;;2.25;;
66437;SDS011;54537;47.972;11.662;2023-04-15T11:05:07;5.85;;;2.55;;
66437;SDS011;54537;47.972;11.662;2023-04-15T11:13:21;6.18;;;2.47;;
66437;SDS011;54537;47.972;11.662;2023-04-15T11:15:56;5.22;;;1.95;;
66437;SDS011;54537;47.972;11.662;2023-04-15T11:18:28;6.25;;;2.40;;
66437;SDS011;54537;47.972;11.662;2023-04-15T11:20:57;7.88;;;2.40;;
66437;SDS011;54537;47.972;11.662;2023-04-15T11:23:29;5.22;;;2.40;;
66437;SDS011;54537;47.972;11.662;2023-04-15T11:25:57;4.90;;;2.30;;
66437;SDS011;54537;47.972;11.662;2023-04-15T11:28:24;8.30;;;2.50;;
66437;SDS011;54537;47.972;11.662;2023-04-15T11:30:52;5.55;;;2.80;;
66437;SDS011;54537;47.972;11.662;2023-04-15T11:33:19;7.78;;;2.78;;
66437;SDS011;54537;47.972;11.662;2023-04-15T11:35:46;6.88;;;2.50;;
66437;SDS011;54537;47.972;11.662;2023-04-15T11:38:14;6.07;;;2.65;;
66437;SDS011;54537;47.972;11.662;2023-04-15T11:40:42;5.10;;;2.28;;
66437;SDS011;54537;47.972;11.662;2023-04-15T11:43:09;7.15;;;2.15;;
66437;SDS011;54537;47.972;11.662;2023-04-15T11:45:37;6.40;;;2.72;;
66437;SDS011;54537;47.972;11.662;2023-04-15T11:48:10;6.22;;;2.60;;
66437;SDS011;54537;47.972;11.662;2023-04-15T11:50:37;6.28;;;2.58;;
66437;SDS011;54537;47.972;11.662;2023-04-15T11:53:06;6.78;;;3.10;;
66437;SDS011;54537;47.972;11.662;2023-04-15T11:55:41;7.78;;;2.78;;
66437;SDS011;54537;47.972;11.662;2023-04-15T11:58:09;7.82;;;3.03;;
66437;SDS011;54537;47.972;11.662;2023-04-15T12:00:37;6.15;;;2.80;;
66437;SDS011;54537;47.972;11.662;2023-04-15T12:03:10;7.10;;;2.72;;
66437;SDS011;54537;47.972;11.662;2023-04-15T12:08:54;6.10;;;2.55;;
66437;SDS011;54537;47.972;11.662;2023-04-15T12:11:31;6.45;;;2.55;;
66437;SDS011;54537;47.972;11.662;2023-04-15T12:14:02;6.30;;;2.75;;
66437;SDS011;54537;47.972;11.662;2023-04-15T12:16:30;4.03;;;2.53;;
66437;SDS011;54537;47.972;11.662;2023-04-15T12:18:57;5.25;;;2.42;;
66437;SDS011;54537;47.972;11.662;2023-04-15T12:21:26;5.38;;;2.35;;
66437;SDS011;54537;47.972;11.662;2023-04-15T12:23:54;7.13;;;2.45;;
66437;SDS011;54537;47.972;11.662;2023-04-15T12:26:24;5.45;;;2.60;;
66437;SDS011;54537;47.972;11.662;2023-04-15T12:28:53;5.80;;;2.78;;
66437;SDS011;54537;47.972;11.662;2023-04-15T12:31:21;4.50;;;2.88;;
66437;SDS011;54537;47.972;11.662;2023-04-15T12:33:48;8.38;;;2.85;;
66437;SDS011;54537;47.972;11.662;2023-04-15T12:36:15;10.38;;;3.35;;
66437;SDS011;54537;47.972;11.662;2023-04-15T12:38:41;7.63;;;2.53;;
66437;SDS011;54537;47.972;11.662;2023-04-15T12:41:08;7.38;;;3.10;;
66437;SDS011;54537;47.972;11.662;2023-04-15T12:43:34;7.07;;;3.38;;
66437;SDS011;54537;47.972;11.662;2023-04-15T12:46:02;9.23;;;3.08;;
66437;SDS011;54537;47.972;11.662;2023-04-15T12:48:30;6.70;;;3.25;;
66437;SDS011;54537;47.972;11.662;2023-04-15T12:50:57;8.13;;;3.05;;
66437;SDS011;54537;47.972;11.662;2023-04-15T12:53:23;7.30;;;3.08;;
66437;SDS011;54537;47.972;11.662;2023-04-15T12:55:50;9.52;;;4.25;;
66437;SDS011;54537;47.972;11.662;2023-04-15T12:58:16;9.82;;;3.70;;
66437;SDS011;54537;47.972;11.662;2023-04-15T13:00:43;9.05;;;4.05;;
66437;SDS011;54537;47.972;11.662;2023-04-15T13:03:11;15.05;;;6.10;;
66437;SDS011;54537;47.972;11.662;2023-04-15T13:05:37;11.93;;;4.88;;
66437;SDS011;54537;47.972;11.662;2023-04-15T13:08:04;9.52;;;3.90;;
66437;SDS011;54537;47.972;11.662;2023-04-15T13:10:31;11.18;;;5.00;;
66437;SDS011;54537;47.972;11.662;2023-04-15T13:12:57;10.43;;;3.92;;
66437;SDS011;54537;47.972;11.662;2023-04-15T13:15:24;12.27;;;4.20;;
66437;SDS011;54537;47.972;11.662;2023-04-15T13:17:50;6.57;;;3.08;;
66437;SDS011;54537;47.972;11.662;2023-04-15T13:20:18;6.70;;;2.72;;
66437;SDS011;54537;47.972;11.662;2023-04-15T13:22:44;6.63;;;2.90;;
66437;SDS011;54537;47.972;11.662;2023-04-15T13:25:11;5.07;;;2.33;;
66437;SDS011;54537;47.972;11.662;2023-04-15T13:27:37;6.38;;;3.00;;
66437;SDS011;54537;47.972;11.662;2023-04-15T13:30:05;8.77;;;2.70;;
66437;SDS011;54537;47.972;11.662;2023-04-15T13:32:32;7.72;;;2.60;;
66437;SDS011;54537;47.972;11.662;2023-04-15T13:34:59;7.10;;;3.05;;
66437;SDS011;54537;47.972;11.662;2023-04-15T13:37:27;6.53;;;2.33;;
66437;SDS011;54537;47.972;11.662;2023-04-15T13:39:53;5.50;;;2.80;;
66437;SDS011;54537;47.972;11.662;2023-04-15T13:42:20;5.65;;;2.75;;
66437;SDS011;54537;47.972;11.662;2023-04-15T13:44:48;6.45;;;2.72;;
66437;SDS011;54537;47.972;11.662;2023-04-15T13:47:14;9.50;;;3.22;;
66437;SDS011;54537;47.972;11.662;2023-04-15T13:49:41;9.45;;;3.67;;
66437;SDS011;54537;47.972;11.662;2023-04-15T13:52:07;7.88;;;3.10;;
66437;SDS011;54537;47.972;11.662;2023-04-15T13:54:35;6.00;;;3.20;;
66437;SDS011;54537;47.972;11.662;2023-04-15T13:57:02;12.95;;;3.50;;
66437;SDS011;54537;47.972;11.662;2023-04-15T13:59:28;6.78;;;3.00;;
66437;SDS011;54537;47.972;11.662;2023-04-15T14:01:55;7.60;;;3.65;;
66437;SDS011;54537;47.972;11.662;2023-04-15T14:04:21;9.73;;;3.50;;
66437;SDS011;54537;47.972;11.662;2023-04-15T14:06:48;6.47;;;2.90;;
66437;SDS011;54537;47.972;11.662;2023-04-15T14:09:15;9.85;;;3.75;;
66437;SDS011;54537;47.972;11.662;2023-04-15T14:11:42;9.00;;;3.70;;
66437;SDS011;54537;47.972;11.662;2023-04-15T14:14:09;7.60;;;3.38;;
66437;SDS011;54537;47.972;11.662;2023-04-15T14:16:35;7.32;;;2.85;;
66437;SDS011;54537;47.972;11.662;2023-04-15T14:19:02;7.93;;;3.40;;
66437;SDS011;54537;47.972;11.662;2023-04-15T14:21:28;7.68;;;3.30;;
66437;SDS011;54537;47.972;11.662;2023-04-15T14:23:56;6.47;;;2.97;;
66437;SDS011;54537;47.972;11.662;2023-04-15T14:26:23;6.78;;;2.83;;
66437;SDS011;54537;47.972;11.662;2023-04-15T14:28:51;6.03;;;3.03;;
66437;SDS011;54537;47.972;11.662;2023-04-15T14:31:17;6.45;;;2.70;;
66437;SDS011;54537;47.972;11.662;2023-04-15T14:33:44;7.05;;;3.33;;
66437;SDS011;54537;47.972;11.662;2023-04-15T14:36:10;6.97;;;3.08;;
66437;SDS011;54537;47.972;11.662;2023-04-15T14:38:37;9.38;;;3.50;;
66437;SDS011;54537;47.972;11.662;2023-04-15T14:41:04;5.82;;;3.17;;
66437;SDS011;54537;47.972;11.662;2023-04-15T14:43:30;6.68;;;3.20;;
66437;SDS011;54537;47.972;11.662;2023-04-15T14:45:58;8.75;;;3.20;;